<?xml version="1.0" encoding="UTF-8" standalone="no" ?>
<gpx xmlns="http://www.topografix.com/GPX/1/1" xmlns:xsi="http://www.w3.org/2001/XMLSchema-instance" xsi:schemaLocation="http://www.topografix.com/GPX/1/1 http://www.topografix.com/GPX/1/1/gpx.xsd" version="1.1" creator="VisuGPX - https://www.visugpx.com">
  <metadata>
    <name>Argentina</name>
    <desc><![CDATA[Downloaded from eMap Software Version 2.75]]></desc>
  </metadata>
  <trk>
    <name><![CDATA[Argentina_92]]></name>
    <extensions>
      <line xmlns="http://www.topografix.com/GPX/gpx_style/0/2">
        <color>ff0000</color>
        <opacity>0.78</opacity>
        <width>0.6000</width>
      </line>
    </extensions>
    <trkseg>
      <trkpt lat="44.19169" lon="6.9009">
        <ele>1693.980469</ele>
        <time>2008-08-10T12:07:48Z</time>
      </trkpt>
      <trkpt lat="44.19169" lon="6.90092">
        <ele>1693.980469</ele>
        <time>2008-08-10T12:07:51Z</time>
      </trkpt>
      <trkpt lat="44.1913" lon="6.90096">
        <ele>1656.969482</ele>
        <time>2008-08-10T12:08:03Z</time>
      </trkpt>
      <trkpt lat="44.19133" lon="6.90094">
        <ele>1656.48877</ele>
        <time>2008-08-10T12:08:06Z</time>
      </trkpt>
      <trkpt lat="44.1915" lon="6.90083">
        <ele>1655.527588</ele>
        <time>2008-08-10T12:08:25Z</time>
      </trkpt>
      <trkpt lat="44.1915" lon="6.9012">
        <ele>1661.295654</ele>
        <time>2008-08-10T12:08:57Z</time>
      </trkpt>
      <trkpt lat="44.19141" lon="6.90132">
        <ele>1660.814941</ele>
        <time>2008-08-10T12:09:16Z</time>
      </trkpt>
      <trkpt lat="44.19124" lon="6.9018">
        <ele>1658.89209</ele>
        <time>2008-08-10T12:09:53Z</time>
      </trkpt>
      <trkpt lat="44.19143" lon="6.90229">
        <ele>1658.89209</ele>
        <time>2008-08-10T12:10:26Z</time>
      </trkpt>
      <trkpt lat="44.19148" lon="6.9024">
        <ele>1658.89209</ele>
        <time>2008-08-10T12:10:35Z</time>
      </trkpt>
      <trkpt lat="44.19158" lon="6.90242">
        <ele>1657.450195</ele>
        <time>2008-08-10T12:10:49Z</time>
      </trkpt>
      <trkpt lat="44.19165" lon="6.90248">
        <ele>1657.930908</ele>
        <time>2008-08-10T12:10:54Z</time>
      </trkpt>
      <trkpt lat="44.1915" lon="6.90285">
        <ele>1657.930908</ele>
        <time>2008-08-10T12:11:12Z</time>
      </trkpt>
      <trkpt lat="44.19139" lon="6.90315">
        <ele>1657.450195</ele>
        <time>2008-08-10T12:11:31Z</time>
      </trkpt>
      <trkpt lat="44.19122" lon="6.90345">
        <ele>1657.450195</ele>
        <time>2008-08-10T12:11:53Z</time>
      </trkpt>
      <trkpt lat="44.19096" lon="6.90392">
        <ele>1656.48877</ele>
        <time>2008-08-10T12:12:27Z</time>
      </trkpt>
      <trkpt lat="44.19064" lon="6.90424">
        <ele>1655.046875</ele>
        <time>2008-08-10T12:13:06Z</time>
      </trkpt>
      <trkpt lat="44.19064" lon="6.90495">
        <ele>1653.60498</ele>
        <time>2008-08-10T12:13:43Z</time>
      </trkpt>
      <trkpt lat="44.19066" lon="6.90547">
        <ele>1652.643555</ele>
        <time>2008-08-10T12:14:11Z</time>
      </trkpt>
      <trkpt lat="44.19064" lon="6.90611">
        <ele>1652.162842</ele>
        <time>2008-08-10T12:14:46Z</time>
      </trkpt>
      <trkpt lat="44.1906" lon="6.90654">
        <ele>1652.162842</ele>
        <time>2008-08-10T12:15:10Z</time>
      </trkpt>
      <trkpt lat="44.1904" lon="6.90718">
        <ele>1652.162842</ele>
        <time>2008-08-10T12:15:40Z</time>
      </trkpt>
      <trkpt lat="44.19034" lon="6.9075">
        <ele>1651.20166</ele>
        <time>2008-08-10T12:16:01Z</time>
      </trkpt>
      <trkpt lat="44.19038" lon="6.90791">
        <ele>1651.20166</ele>
        <time>2008-08-10T12:16:26Z</time>
      </trkpt>
      <trkpt lat="44.1903" lon="6.90853">
        <ele>1651.20166</ele>
        <time>2008-08-10T12:17:00Z</time>
      </trkpt>
      <trkpt lat="44.19032" lon="6.90898">
        <ele>1650.720947</ele>
        <time>2008-08-10T12:17:28Z</time>
      </trkpt>
      <trkpt lat="44.1904" lon="6.90963">
        <ele>1651.20166</ele>
        <time>2008-08-10T12:18:04Z</time>
      </trkpt>
      <trkpt lat="44.19053" lon="6.91034">
        <ele>1651.20166</ele>
        <time>2008-08-10T12:18:43Z</time>
      </trkpt>
      <trkpt lat="44.1904" lon="6.91087">
        <ele>1649.759766</ele>
        <time>2008-08-10T12:19:13Z</time>
      </trkpt>
      <trkpt lat="44.19008" lon="6.91126">
        <ele>1649.759766</ele>
        <time>2008-08-10T12:19:42Z</time>
      </trkpt>
      <trkpt lat="44.18999" lon="6.91156">
        <ele>1648.79834</ele>
        <time>2008-08-10T12:20:01Z</time>
      </trkpt>
      <trkpt lat="44.18987" lon="6.91201">
        <ele>1647.837158</ele>
        <time>2008-08-10T12:20:26Z</time>
      </trkpt>
      <trkpt lat="44.18982" lon="6.91257">
        <ele>1647.837158</ele>
        <time>2008-08-10T12:21:03Z</time>
      </trkpt>
    </trkseg>
  </trk>
</gpx>